Time;durP1;ratioP1;P1;durP2;ratioP2;P2;SDS_P1;SDS_P2;PMS_P1;PMS_P2;Temp;Humidity;BMP_temperature;BMP_pressure;BME280_temperature;BME280_humidity;BME280_pressure;Samples;Min_cycle;Max_cycle;Signal;HPM_P1;HPM_P2
2022/06/03 00:01:30;;;;;;;3.28;1.27;;;;;;;25.16;55.33;100816.25;5066830;28;20443;-71
2022/06/03 00:04:14;;;;;;;2.17;1.45;;;;;;;25.16;55.50;100817.06;5065422;28;20485;-73
2022/06/03 00:06:42;;;;;;;2.22;1.30;;;;;;;25.17;55.40;100807.19;5066651;28;20530;-70
2022/06/03 00:09:27;;;;;;;2.53;1.33;;;;;;;25.18;55.34;100806.97;5066506;28;20051;-73
2022/06/03 00:11:58;;;;;;;2.13;0.98;;;;;;;25.18;55.06;100801.63;5065818;28;20033;-74
2022/06/03 00:14:42;;;;;;;1.38;0.75;;;;;;;25.18;55.03;100803.50;5064167;28;20297;-71
2022/06/03 00:17:26;;;;;;;1.10;0.82;;;;;;;25.20;55.06;100802.22;5062723;28;20036;-70
2022/06/03 00:19:57;;;;;;;1.88;0.77;;;;;;;25.21;55.10;100803.03;5067134;28;20534;-72
2022/06/03 00:22:53;;;;;;;1.20;0.68;;;;;;;25.20;54.85;100812.88;5065480;28;20043;-70
2022/06/03 00:25:57;;;;;;;1.67;0.70;;;;;;;25.19;54.84;100808.59;5067258;28;20047;-76
2022/06/03 00:28:31;;;;;;;2.15;0.55;;;;;;;25.19;54.98;100805.94;5024611;28;20052;-71
2022/06/03 00:31:28;;;;;;;1.52;0.95;;;;;;;25.18;54.92;100804.31;5064883;28;20445;-75
2022/06/03 00:34:09;;;;;;;1.85;0.80;;;;;;;25.16;55.06;100806.38;5038906;28;20107;-74
2022/06/03 00:36:54;;;;;;;1.27;0.68;;;;;;;25.16;54.98;100810.91;5066879;28;20649;-73
2022/06/03 00:39:38;;;;;;;;;;;;;;;25.07;55.06;100802.44;5065864;28;20036;-69
2022/06/03 00:42:15;;;;;;;1.95;0.65;;;;;;;25.10;55.08;100801.97;5067859;28;19963;-73
2022/06/03 00:45:15;;;;;;;1.08;0.70;;;;;;;25.11;54.99;100787.59;5065164;28;20635;-70
2022/06/03 00:47:59;;;;;;;1.20;0.70;;;;;;;25.14;54.81;100792.47;5067384;28;20055;-73
2022/06/03 00:51:03;;;;;;;1.55;1.10;;;;;;;25.12;54.74;100791.91;5049111;28;20041;-72
2022/06/03 00:53:55;;;;;;;1.10;0.60;;;;;;;25.10;54.93;100785.97;5051145;28;20052;-72
2022/06/03 00:56:46;;;;;;;1.38;0.50;;;;;;;25.11;54.78;100777.75;5056129;28;20107;-74
2022/06/03 00:59:14;;;;;;;1.58;0.70;;;;;;;25.12;54.91;100784.72;5070822;28;20037;-73
2022/06/03 01:01:42;;;;;;;2.20;0.60;;;;;;;25.13;54.84;100788.19;5064908;28;20027;-73
2022/06/03 01:04:19;;;;;;;0.90;0.60;;;;;;;25.12;54.78;100787.38;5064162;28;20043;-70
2022/06/03 01:07:06;;;;;;;1.85;0.52;;;;;;;25.10;54.76;100792.13;5069797;28;20028;-71
2022/06/03 01:09:35;;;;;;;1.73;0.50;;;;;;;25.12;54.90;100790.03;5060100;28;20028;-71
2022/06/03 01:12:07;;;;;;;0.88;0.50;;;;;;;25.13;54.83;100788.19;5056370;28;20085;-74
2022/06/03 01:14:58;;;;;;;2.08;0.60;;;;;;;25.12;54.83;100789.22;5071837;28;20037;-71
2022/06/03 01:17:59;;;;;;;0.90;0.55;;;;;;;25.10;54.78;100786.81;5061365;28;20084;-71
2022/06/03 01:20:39;;;;;;;2.28;0.50;;;;;;;25.11;54.83;100795.59;4977050;28;20094;-71
2022/06/03 01:23:19;;;;;;;1.75;0.40;;;;;;;25.12;54.84;100790.03;4965475;28;20427;-70
2022/06/03 01:26:11;;;;;;;1.10;0.50;;;;;;;25.13;54.78;100785.53;4964917;28;20046;-72
2022/06/03 01:29:07;;;;;;;1.70;0.40;;;;;;;25.11;54.68;100798.28;4966067;28;20034;-75
2022/06/03 01:32:03;;;;;;;2.13;0.40;;;;;;;25.10;54.90;100799.31;4972266;28;20138;-73
2022/06/03 01:34:37;;;;;;;0.98;0.50;;;;;;;25.10;54.90;100796.66;4976943;28;20118;-73
2022/06/03 01:37:20;;;;;;;0.95;0.70;;;;;;;25.12;54.69;100805.22;4958281;28;20039;-72
2022/06/03 01:39:58;;;;;;;0.98;0.50;;;;;;;25.12;54.91;100800.72;4970206;28;20038;-71
2022/06/03 01:43:00;;;;;;;1.35;0.47;;;;;;;25.09;54.84;100806.50;4965922;28;20051;-75
2022/06/03 01:45:34;;;;;;;1.02;0.57;;;;;;;25.09;54.65;100811.84;4965357;28;20088;-70
2022/06/03 01:48:03;;;;;;;1.23;0.60;;;;;;;25.10;54.43;100818.78;4973496;28;20092;-72
2022/06/03 01:51:02;;;;;;;2.03;0.60;;;;;;;25.09;54.43;100817.16;5000681;28;20129;-75
2022/06/03 01:53:36;;;;;;;1.08;0.50;;;;;;;25.10;54.68;100812.66;4995478;28;20045;-73
2022/06/03 01:56:24;;;;;;;1.00;0.40;;;;;;;25.09;54.51;100808.34;5006379;28;20052;-73
2022/06/03 01:59:24;;;;;;;0.60;0.40;;;;;;;25.09;54.47;100821.69;5064788;28;20561;-73
2022/06/03 02:02:11;;;;;;;0.70;0.43;;;;;;;25.09;54.49;100817.16;5064557;28;20385;-73
2022/06/03 02:05:16;;;;;;;1.67;0.70;;;;;;;25.10;54.49;100817.97;5064756;28;20090;-74
2022/06/03 02:08:03;;;;;;;1.30;0.40;;;;;;;25.11;54.23;100814.28;5065013;28;20028;-72
2022/06/03 02:11:01;;;;;;;2.45;0.43;;;;;;;25.10;54.28;100823.31;5061617;28;20550;-73
2022/06/03 02:13:45;;;;;;;1.23;0.47;;;;;;;25.10;54.13;100824.13;5057171;28;20369;-72
2022/06/03 02:16:19;;;;;;;1.23;0.30;;;;;;;25.11;54.28;100808.94;5068211;28;20118;-72
2022/06/03 02:19:11;;;;;;;1.13;0.40;;;;;;;25.12;54.16;100795.38;5069685;28;20028;-73
2022/06/03 02:21:59;;;;;;;0.77;0.35;;;;;;;25.14;54.04;100781.81;5066879;28;20464;-71
2022/06/03 02:25:03;;;;;;;0.98;0.50;;;;;;;25.16;53.92;100778.91;5063233;28;20459;-70
2022/06/03 02:27:53;;;;;;;0.68;0.35;;;;;;;25.17;54.02;100767.22;5068574;28;20121;-75
2022/06/03 02:30:43;;;;;;;0.40;0.30;;;;;;;25.17;53.99;100770.69;5067763;28;20110;-72
2022/06/03 02:33:23;;;;;;;2.45;0.40;;;;;;;25.19;53.78;100765.13;5068339;28;20083;-73
2022/06/03 02:36:23;;;;;;;1.08;0.40;;;;;;;25.18;53.81;100764.31;5068895;28;20097;-75
2022/06/03 02:39:20;;;;;;;0.80;0.47;;;;;;;25.18;53.79;100766.16;5055720;28;20032;-72
2022/06/03 02:42:07;;;;;;;1.05;0.47;;;;;;;25.18;53.69;100772.31;5068416;28;20446;-75
2022/06/03 02:44:57;;;;;;;0.50;0.30;;;;;;;25.20;53.62;100777.41;5067217;28;20036;-73
2022/06/03 02:47:37;;;;;;;1.92;0.30;;;;;;;25.18;53.84;100779.50;5066200;28;20040;-71
2022/06/03 02:50:13;;;;;;;0.50;0.30;;;;;;;25.19;53.79;100771.25;5063398;28;20048;-73
2022/06/03 02:53:22;;;;;;;0.70;0.40;;;;;;;25.16;53.70;100785.06;5068255;28;20044;-74
2022/06/03 02:56:06;;;;;;;0.68;0.38;;;;;;;25.15;53.81;100799.44;5022830;28;20144;-73
2022/06/03 02:58:43;;;;;;;1.20;0.40;;;;;;;25.15;53.79;100804.75;5070164;28;20040;-73
2022/06/03 03:01:36;;;;;;;0.90;0.30;;;;;;;25.15;53.90;100810.09;5067696;28;20465;-72
2022/06/03 03:04:11;;;;;;;1.08;0.40;;;;;;;25.16;53.61;100811.72;5055203;28;20388;-74
2022/06/03 03:06:42;;;;;;;0.67;0.40;;;;;;;25.14;53.51;100811.94;5067138;28;20062;-71
2022/06/03 03:09:46;;;;;;;1.10;0.32;;;;;;;25.16;53.71;100816.25;5068209;28;20548;-70
2022/06/03 03:12:42;;;;;;;1.60;0.50;;;;;;;25.11;53.61;100815.09;5002438;28;20133;-70
2022/06/03 03:15:26;;;;;;;1.10;0.30;;;;;;;25.11;53.84;100831.06;5003817;28;20444;-72
2022/06/03 03:18:26;;;;;;;0.70;0.30;;;;;;;25.10;53.61;100826.78;5006197;28;20054;-70
2022/06/03 03:21:15;;;;;;;1.05;0.22;;;;;;;25.09;53.52;100835.81;5004456;28;20034;-69
2022/06/03 03:23:49;;;;;;;1.17;0.30;;;;;;;25.10;53.55;100828.63;5004860;28;20168;-71
2022/06/03 03:26:42;;;;;;;0.82;0.43;;;;;;;25.11;53.61;100830.25;5001079;28;20084;-72
2022/06/03 03:29:22;;;;;;;2.50;0.40;;;;;;;25.09;53.62;100827.00;4991725;28;20045;-70
2022/06/03 03:32:06;;;;;;;0.60;0.30;;;;;;;25.10;53.51;100815.31;5006847;28;20045;-74
2022/06/03 03:34:54;;;;;;;0.80;0.30;;;;;;;25.10;53.77;100817.97;5006453;28;20034;-73
2022/06/03 03:37:40;;;;;;;0.55;0.30;;;;;;;25.12;53.40;100821.22;5004517;28;20532;-75
2022/06/03 03:40:14;;;;;;;0.70;0.40;;;;;;;25.11;53.47;100820.41;5005921;28;20029;-72
2022/06/03 03:43:07;;;;;;;1.08;0.40;;;;;;;25.11;53.40;100835.59;5028099;28;20036;-73
2022/06/03 03:45:50;;;;;;;0.60;0.30;;;;;;;25.10;53.34;100834.78;5069469;28;20036;-71
2022/06/03 03:48:19;;;;;;;0.50;0.30;;;;;;;25.12;53.44;100831.88;5067535;28;20063;-71
2022/06/03 03:51:12;;;;;;;0.40;0.20;;;;;;;25.12;53.57;100831.88;5057178;28;20769;-71
2022/06/03 03:54:13;;;;;;;1.42;0.30;;;;;;;25.10;53.61;100829.44;5023718;28;20493;-72
2022/06/03 03:56:50;;;;;;;0.80;0.30;;;;;;;25.10;53.55;100823.31;5048819;28;20119;-70
2022/06/03 04:00:03;;;;;;;0.68;0.30;;;;;;;25.10;53.16;100823.31;5049740;28;20052;-70
2022/06/03 04:02:47;;;;;;;0.90;0.30;;;;;;;25.07;53.41;100821.09;5026018;28;20040;-71
2022/06/03 04:05:34;;;;;;;1.42;0.47;;;;;;;25.08;53.25;100825.41;5034883;28;20037;-74
2022/06/03 04:08:18;;;;;;;0.93;0.40;;;;;;;25.07;53.34;100813.91;5048284;28;20439;-73
2022/06/03 04:11:00;;;;;;;0.73;0.30;;;;;;;25.09;53.42;100808.34;5047381;28;20095;-71
2022/06/03 04:13:44;;;;;;;1.08;0.30;;;;;;;25.09;53.25;100811.03;5037255;28;20172;-72
2022/06/03 04:16:37;;;;;;;1.27;0.32;;;;;;;25.09;53.22;100813.69;5049315;28;20273;-71
2022/06/03 04:19:12;;;;;;;2.45;0.30;;;;;;;25.10;53.28;100821.44;5044055;28;20074;-73
2022/06/03 04:22:05;;;;;;;1.75;0.40;;;;;;;25.10;53.44;100826.78;5046054;28;20033;-71
2022/06/03 04:24:49;;;;;;;1.00;0.30;;;;;;;25.12;53.18;100826.56;5046108;28;20040;-75
2022/06/03 04:27:26;;;;;;;0.63;0.30;;;;;;;25.13;53.14;100829.00;5050981;28;20248;-72
2022/06/03 04:29:51;;;;;;;0.77;0.30;;;;;;;25.16;53.27;100840.25;5049031;28;20068;-71
2022/06/03 04:32:35;;;;;;;0.70;0.30;;;;;;;25.14;53.24;100845.81;5045141;28;20818;-70
2022/06/03 04:35:16;;;;;;;0.80;0.47;;;;;;;25.14;53.00;100841.28;5044596;28;20033;-73
2022/06/03 04:37:44;;;;;;;1.38;0.30;;;;;;;25.17;53.24;100839.19;5045719;28;20048;-71
2022/06/03 04:40:31;;;;;;;0.65;0.30;;;;;;;25.18;52.88;100838.97;5059004;28;20020;-71
2022/06/03 04:42:56;;;;;;;0.50;0.30;;;;;;;25.19;53.24;100845.09;5044467;28;20076;-73
2022/06/03 04:45:36;;;;;;;1.55;0.47;;;;;;;25.20;53.18;100833.41;5050162;28;20508;-72
2022/06/03 04:48:10;;;;;;;0.65;0.30;;;;;;;25.21;52.87;100832.34;5051117;28;20496;-71
2022/06/03 04:51:20;;;;;;;0.88;0.35;;;;;;;25.20;52.91;100839.53;5053420;28;20048;-72
2022/06/03 04:54:05;;;;;;;0.65;0.30;;;;;;;25.20;52.95;100839.53;5039243;28;20040;-73
2022/06/03 04:56:39;;;;;;;;;;;;;;;25.14;52.87;100835.13;5006451;28;20054;-71
2022/06/03 04:59:42;;;;;;;0.95;0.40;;;;;;;25.17;53.07;100834.66;5047980;28;20368;-73
2022/06/03 05:02:38;;;;;;;0.60;0.30;;;;;;;25.19;52.86;100832.59;5043377;28;20040;-72
2022/06/03 05:05:06;;;;;;;;;;;;;;;25.14;52.78;100835.94;5042204;28;20400;-72
2022/06/03 05:07:37;;;;;;;1.67;0.30;;;;;;;25.18;52.62;100828.31;5060840;28;19973;-70
2022/06/03 05:10:40;;;;;;;2.25;0.40;;;;;;;25.21;52.79;100830.50;5044389;28;20067;-74
2022/06/03 05:13:24;;;;;;;1.33;0.38;;;;;;;25.22;52.75;100825.97;5048529;28;20029;-72
2022/06/03 05:16:27;;;;;;;0.95;0.30;;;;;;;25.21;52.70;100822.50;5047885;28;20112;-73
2022/06/03 05:18:52;;;;;;;0.70;0.30;;;;;;;25.21;52.86;100819.84;5046597;28;20037;-74
2022/06/03 05:21:32;;;;;;;0.60;0.30;;;;;;;25.21;52.71;100819.84;5046578;28;20099;-70
2022/06/03 05:24:01;;;;;;;2.47;0.22;;;;;;;25.22;52.69;100812.66;5044900;28;20037;-70
2022/06/03 05:26:44;;;;;;;0.98;0.30;;;;;;;25.21;52.56;100814.50;5047860;28;20065;-71
2022/06/03 05:29:31;;;;;;;1.27;0.38;;;;;;;25.18;52.63;100830.16;5045852;28;20091;-74
2022/06/03 05:32:06;;;;;;;0.82;0.30;;;;;;;25.19;52.46;100827.25;5045004;28;20121;-72
2022/06/03 05:35:11;;;;;;;1.05;0.30;;;;;;;25.18;52.39;100830.97;5060174;28;20048;-72
2022/06/03 05:37:59;;;;;;;0.85;0.30;;;;;;;25.18;52.24;100836.28;5057053;28;20036;-75
2022/06/03 05:40:30;;;;;;;1.90;0.38;;;;;;;25.18;52.26;100841.63;5035271;28;20058;-73
2022/06/03 05:43:32;;;;;;;0.77;0.30;;;;;;;25.17;52.05;100842.66;5053345;28;20112;-72
2022/06/03 05:46:49;;;;;;;0.60;0.30;;;;;;;25.16;52.31;100842.91;5054389;28;20047;-72
2022/06/03 05:49:26;;;;;;;;;;;;;;;25.09;52.68;100835.00;5014543;28;20119;-72
2022/06/03 05:52:11;;;;;;;1.10;0.40;;;;;;;25.11;52.57;100835.59;5045973;28;19920;-73
2022/06/03 05:54:57;;;;;;;1.33;0.50;;;;;;;25.14;52.21;100840.47;5048695;28;20052;-72
2022/06/03 05:57:42;;;;;;;2.45;0.30;;;;;;;25.17;52.37;100836.53;5041914;28;20358;-74
2022/06/03 06:00:32;;;;;;;1.37;0.40;;;;;;;25.17;52.16;100845.34;5046699;28;20384;-75
2022/06/03 06:03:13;;;;;;;0.70;0.30;;;;;;;25.19;52.31;100843.25;5047609;28;20037;-74
2022/06/03 06:05:57;;;;;;;1.23;0.32;;;;;;;25.22;52.22;100848.13;5049787;28;20044;-72
2022/06/03 06:08:25;;;;;;;1.38;0.45;;;;;;;25.28;52.32;100851.72;5048909;28;20037;-74
2022/06/03 06:11:12;;;;;;;1.67;0.50;;;;;;;25.35;52.63;100852.44;5050208;28;20028;-75
2022/06/03 06:14:09;;;;;;;4.10;0.90;;;;;;;25.36;53.57;100854.84;5045633;28;20033;-72
2022/06/03 06:16:42;;;;;;;2.08;0.65;;;;;;;25.35;53.59;100847.91;5044734;28;20249;-72
2022/06/03 06:19:15;;;;;;;3.58;0.50;;;;;;;25.37;53.83;100847.66;5045456;28;20531;-72
2022/06/03 06:22:05;;;;;;;3.65;0.40;;;;;;;25.35;53.70;100847.91;5035303;28;20017;-72
2022/06/03 06:24:55;;;;;;;5.28;0.57;;;;;;;25.44;54.34;100849.19;5050328;28;20033;-74
2022/06/03 06:27:37;;;;;;;1.85;0.47;;;;;;;25.45;53.56;100852.66;5041481;28;20033;-72
2022/06/03 06:30:11;;;;;;;1.85;0.50;;;;;;;25.41;53.83;100846.16;5048819;28;20295;-74
2022/06/03 06:33:10;;;;;;;6.30;0.50;;;;;;;25.36;53.72;100844.19;5048144;28;20044;-71
2022/06/03 06:35:50;;;;;;;1.55;0.40;;;;;;;25.36;53.48;100841.53;5050111;28;20393;-73
2022/06/03 06:38:44;;;;;;;3.75;1.15;;;;;;;25.39;53.59;100854.41;5047986;28;20112;-74
2022/06/03 06:41:16;;;;;;;2.13;0.38;;;;;;;25.44;53.37;100856.38;5033205;28;20029;-75
2022/06/03 06:43:55;;;;;;;1.63;0.52;;;;;;;25.48;53.29;100862.06;5047042;28;20056;-76
2022/06/03 06:46:38;;;;;;;3.72;0.60;;;;;;;25.47;54.11;100858.56;5038034;28;20090;-75
2022/06/03 06:49:03;;;;;;;4.50;1.00;;;;;;;25.49;54.18;100858.34;5058606;28;20044;-73
2022/06/03 06:51:31;;;;;;;2.45;0.60;;;;;;;25.49;53.52;100855.66;5065458;28;20095;-70
2022/06/03 06:54:10;;;;;;;5.50;0.77;;;;;;;25.49;52.97;100869.81;5068781;28;20029;-74
2022/06/03 06:56:50;;;;;;;1.90;0.40;;;;;;;25.50;52.91;100876.78;5084306;28;20036;-73
2022/06/03 06:59:39;;;;;;;1.75;0.50;;;;;;;25.47;52.79;100871.91;5051525;28;20041;-73
2022/06/03 07:02:31;;;;;;;3.15;0.50;;;;;;;25.45;52.59;100880.13;5063917;28;20032;-71
2022/06/03 07:05:03;;;;;;;3.85;0.40;;;;;;;25.45;52.81;100871.31;5067079;28;20024;-73
2022/06/03 07:07:38;;;;;;;3.67;0.50;;;;;;;25.48;52.60;100868.19;5062700;28;20418;-71
2022/06/03 07:10:07;;;;;;;;;;;;;;;25.43;52.88;100870.75;5067559;28;20028;-72
2022/06/03 07:12:57;;;;;;;1.33;0.35;;;;;;;25.44;52.70;100875.84;5066297;28;19966;-72
2022/06/03 07:15:34;;;;;;;1.33;0.32;;;;;;;25.42;52.44;100871.78;5022581;28;20058;-70
2022/06/03 07:20:56;;;;;;;3.40;0.60;;;;;;;25.41;52.34;100868.31;5065780;28;20043;-72
2022/06/03 07:23:37;;;;;;;1.92;0.60;;;;;;;25.41;52.19;100868.31;5058255;28;20031;-71
2022/06/03 07:26:06;;;;;;;3.60;0.57;;;;;;;25.43;52.30;100866.22;5065203;28;20393;-74
2022/06/03 07:28:37;;;;;;;3.13;0.52;;;;;;;25.43;52.40;100866.22;5060241;28;20458;-71
2022/06/03 07:31:30;;;;;;;1.85;0.50;;;;;;;25.42;52.59;100864.59;5062439;28;20323;-70
2022/06/03 07:34:22;;;;;;;1.40;0.73;;;;;;;25.42;52.54;100871.78;5061513;28;20036;-73
2022/06/03 07:37:02;;;;;;;8.48;1.02;;;;;;;25.41;52.68;100862.16;5063729;28;20036;-69
2022/06/03 07:39:43;;;;;;;3.92;0.90;;;;;;;25.41;52.57;100864.84;5062219;28;20031;-72
2022/06/03 07:42:38;;;;;;;3.55;0.57;;;;;;;25.41;52.66;100862.97;5068985;28;20125;-72
2022/06/03 07:45:26;;;;;;;3.65;0.50;;;;;;;25.43;52.61;100854.75;4979273;28;20924;-70
2022/06/03 07:47:59;;;;;;;1.95;0.40;;;;;;;25.42;52.79;100848.59;4983926;28;20523;-74
2022/06/03 07:50:27;;;;;;;1.45;0.50;;;;;;;25.45;52.82;100847.31;4964812;28;20509;-70
2022/06/03 07:52:59;;;;;;;2.17;0.50;;;;;;;25.46;53.68;100841.75;4965437;28;20039;-69
2022/06/03 07:55:28;;;;;;;4.60;0.43;;;;;;;25.52;54.22;100844.53;4963241;28;20170;-73
2022/06/03 07:58:15;;;;;;;1.17;0.43;;;;;;;25.59;54.21;100837.19;4953774;28;20062;-74
2022/06/03 08:00:44;;;;;;;3.15;0.43;;;;;;;25.62;54.16;100837.53;4958338;28;20038;-75
2022/06/03 08:03:24;;;;;;;2.17;0.47;;;;;;;25.58;54.03;100832.91;4968053;28;20450;-71
2022/06/03 08:05:57;;;;;;;3.60;0.50;;;;;;;25.59;54.24;100832.66;4956766;28;20034;-73
2022/06/03 08:11:26;;;;;;;3.35;0.50;;;;;;;25.56;53.72;100829.66;4965729;28;20066;-74
2022/06/03 08:13:55;;;;;;;1.55;0.60;;;;;;;25.57;53.50;100840.09;4956358;28;20034;-73
2022/06/03 08:16:42;;;;;;;1.88;0.52;;;;;;;25.56;53.27;100838.47;4968695;28;20625;-73
2022/06/03 08:19:14;;;;;;;2.78;0.80;;;;;;;25.57;53.40;100834.75;4963707;28;20122;-74
2022/06/03 08:22:01;;;;;;;3.15;0.60;;;;;;;25.54;53.34;100823.75;4993455;28;20433;-74
2022/06/03 08:24:35;;;;;;;1.02;0.50;;;;;;;25.54;53.56;100821.88;5044124;28;20033;-73
2022/06/03 08:27:09;;;;;;;3.47;0.60;;;;;;;25.54;53.35;100813.88;5043011;28;20033;-74
2022/06/03 08:29:59;;;;;;;3.30;0.52;;;;;;;25.54;53.31;100823.75;5043167;28;20086;-71
2022/06/03 08:32:35;;;;;;;1.33;0.55;;;;;;;25.54;53.46;100821.06;5030987;28;20653;-71
2022/06/03 08:35:07;;;;;;;3.83;0.47;;;;;;;25.59;53.30;100824.66;5047827;28;20040;-73
2022/06/03 08:37:49;;;;;;;1.63;0.52;;;;;;;25.64;53.05;100824.00;5046963;28;20545;-70
2022/06/03 08:40:26;;;;;;;1.02;0.40;;;;;;;25.61;52.85;100819.91;5047989;28;20116;-72
2022/06/03 08:43:09;;;;;;;1.35;0.50;;;;;;;25.59;52.79;100811.31;5043151;28;20435;-74
2022/06/03 08:45:55;;;;;;;1.17;0.57;;;;;;;25.59;52.52;100805.19;5044558;28;20028;-71
2022/06/03 08:48:28;;;;;;;1.90;0.50;;;;;;;25.60;52.61;100812.13;5045520;28;20486;-73
2022/06/03 08:50:58;;;;;;;0.80;0.60;;;;;;;25.60;52.23;100814.81;5062559;28;20028;-70
2022/06/03 08:53:34;;;;;;;1.85;0.50;;;;;;;25.60;52.06;100817.47;5060944;28;20032;-73
2022/06/03 08:56:03;;;;;;;2.30;0.50;;;;;;;25.59;51.80;100810.50;5066771;28;20109;-73
2022/06/03 08:58:45;;;;;;;3.60;0.60;;;;;;;25.59;52.10;100810.50;5061615;28;20063;-72
2022/06/03 09:01:13;;;;;;;3.40;0.60;;;;;;;25.59;52.22;100811.31;5064723;28;20096;-74
2022/06/03 09:03:49;;;;;;;1.00;0.47;;;;;;;25.60;52.12;100823.63;5063943;28;20024;-73
2022/06/03 09:06:31;;;;;;;1.30;0.60;;;;;;;25.64;52.21;100821.31;5060370;28;20290;-74
2022/06/03 09:09:04;;;;;;;1.10;0.50;;;;;;;25.62;52.66;100826.88;5065368;28;20036;-73
2022/06/03 09:11:50;;;;;;;1.13;0.50;;;;;;;25.65;52.96;100826.44;5064824;28;20062;-72
2022/06/03 09:14:18;;;;;;;;;;;;;;;25.61;53.09;100825.25;5019351;28;20503;-71
2022/06/03 09:16:48;;;;;;;2.22;0.60;;;;;;;25.66;53.18;100827.25;5062092;28;19924;-76
2022/06/03 09:19:25;;;;;;;1.98;0.57;;;;;;;25.69;53.10;100821.44;5064368;28;20028;-73
2022/06/03 09:21:54;;;;;;;2.50;0.65;;;;;;;25.72;52.99;100820.97;5064614;28;20039;-75
2022/06/03 09:24:24;;;;;;;4.43;1.00;;;;;;;25.73;52.46;100810.06;5066956;28;20599;-76
2022/06/03 09:26:53;;;;;;;2.28;1.23;;;;;;;25.73;52.30;100807.38;5061461;28;20678;-76
2022/06/03 09:29:19;;;;;;;1.33;0.70;;;;;;;25.75;52.72;100807.16;5063109;28;20029;-72
2022/06/03 09:31:50;;;;;;;1.40;0.43;;;;;;;25.76;52.37;100806.09;5066061;28;20024;-71
2022/06/03 09:34:18;;;;;;;1.27;0.65;;;;;;;25.81;52.48;100797.41;5068052;28;20036;-72
2022/06/03 09:36:45;;;;;;;2.03;0.60;;;;;;;25.82;52.44;100797.16;5062348;28;20034;-72
2022/06/03 09:39:15;;;;;;;2.60;0.77;;;;;;;25.83;52.20;100795.31;5064533;28;20043;-72
2022/06/03 09:41:44;;;;;;;1.90;0.47;;;;;;;25.82;52.35;100789.16;5064960;28;20104;-72
2022/06/03 09:44:13;;;;;;;2.38;0.63;;;;;;;25.84;52.17;100788.91;5067759;28;20032;-72
2022/06/03 09:46:41;;;;;;;1.10;0.50;;;;;;;25.84;52.14;100781.72;5064118;28;20035;-71
2022/06/03 09:49:08;;;;;;;3.20;0.70;;;;;;;25.84;52.05;100781.72;5064103;28;20045;-73
2022/06/03 09:51:57;;;;;;;3.55;0.57;;;;;;;25.85;51.92;100777.19;5068084;28;20045;-72
2022/06/03 09:54:34;;;;;;;4.10;0.60;;;;;;;25.90;51.65;100780.78;5067692;28;20033;-70
2022/06/03 09:57:21;;;;;;;1.52;0.60;;;;;;;26.00;51.37;100780.13;5067689;28;20031;-72
2022/06/03 10:00:08;;;;;;;2.30;0.50;;;;;;;25.96;51.50;100789.69;5065661;28;20152;-73
2022/06/03 10:02:35;;;;;;;1.52;0.88;;;;;;;25.94;51.62;100787.25;5061269;28;20036;-74
2022/06/03 10:05:03;;;;;;;2.17;0.68;;;;;;;25.93;51.29;100784.81;5065855;28;20032;-69
2022/06/03 10:07:30;;;;;;;1.05;0.63;;;;;;;25.94;51.27;100781.09;5065083;28;20047;-71
2022/06/03 10:12:52;;;;;;;1.40;0.80;;;;;;;25.95;50.87;100764.84;5067588;28;20039;-71
2022/06/03 10:15:38;;;;;;;2.92;0.70;;;;;;;25.95;50.84;100767.53;5067747;28;20342;-70
2022/06/03 10:18:12;;;;;;;;;;;;;;;25.86;50.58;100747.59;5066964;28;20095;-71
2022/06/03 10:20:38;;;;;;;1.58;0.50;;;;;;;25.90;50.48;100747.94;5065425;28;19958;-71
2022/06/03 10:23:06;;;;;;;0.73;0.45;;;;;;;25.94;50.37;100744.53;5066785;28;20455;-70
2022/06/03 10:25:32;;;;;;;1.80;0.68;;;;;;;26.04;50.47;100743.91;5067570;28;20508;-70
2022/06/03 10:28:05;;;;;;;2.53;0.65;;;;;;;26.06;50.33;100739.94;5067335;28;20420;-70
2022/06/03 10:30:33;;;;;;;5.22;0.80;;;;;;;26.06;49.93;100737.28;5066520;28;20056;-70
2022/06/03 10:32:59;;;;;;;2.17;0.65;;;;;;;26.04;49.77;100728.69;5071408;28;20044;-70
2022/06/03 10:35:31;;;;;;;1.75;0.70;;;;;;;26.06;49.60;100721.25;5074303;28;20029;-71
2022/06/03 10:38:03;;;;;;;2.45;0.85;;;;;;;26.06;49.38;100737.28;5075320;28;20032;-71
2022/06/03 10:40:30;;;;;;;2.75;0.70;;;;;;;26.05;49.41;100732.16;5076112;28;20037;-74
2022/06/03 10:42:59;;;;;;;1.83;0.50;;;;;;;26.07;49.48;100732.75;5076270;28;20025;-73
2022/06/03 10:45:36;;;;;;;4.55;0.75;;;;;;;26.07;49.50;100725.53;5068807;28;20058;-72
2022/06/03 10:48:29;;;;;;;1.42;0.47;;;;;;;26.07;49.74;100730.06;5076262;28;20053;-70
2022/06/03 10:51:11;;;;;;;2.95;0.70;;;;;;;26.08;49.28;100731.69;5036548;28;20041;-72
2022/06/03 11:01:59;;;;;;;3.03;0.65;;;;;;;26.24;48.42;100733.59;5070798;28;20048;-70
2022/06/03 11:04:38;;;;;;;3.85;1.02;;;;;;;26.32;46.92;100725.22;5045265;28;20188;-71
2022/06/03 11:07:23;;;;;;;2.50;0.75;;;;;;;26.34;46.72;100735.66;5044911;28;20040;-74
2022/06/03 11:10:05;;;;;;;3.17;0.88;;;;;;;26.29;47.17;100740.88;5043598;28;20056;-76
2022/06/03 11:12:31;;;;;;;1.83;1.00;;;;;;;26.25;47.67;100729.06;5040979;28;20075;-72
2022/06/03 11:14:56;;;;;;;2.15;0.85;;;;;;;26.25;47.92;100729.88;5040957;28;20060;-72
2022/06/03 11:17:34;;;;;;;1.80;0.65;;;;;;;26.31;48.01;100741.47;5040742;28;20057;-73
2022/06/03 11:20:00;;;;;;;2.10;0.95;;;;;;;26.38;47.99;100726.91;5049448;28;20599;-73
2022/06/03 11:22:31;;;;;;;2.35;0.80;;;;;;;26.43;47.85;100727.00;5042284;28;20036;-72
2022/06/03 11:25:11;;;;;;;5.47;0.90;;;;;;;26.47;47.80;100729.97;5043248;28;20107;-73
2022/06/03 11:27:39;;;;;;;2.22;0.90;;;;;;;26.41;48.18;100733.63;5039637;28;20469;-72
2022/06/03 11:30:19;;;;;;;3.88;1.10;;;;;;;26.38;48.12;100740.28;5040173;28;20036;-73
2022/06/03 11:32:50;;;;;;;3.30;0.85;;;;;;;26.37;48.21;100744.00;5042629;28;20056;-72
2022/06/03 11:35:28;;;;;;;1.90;1.00;;;;;;;26.37;48.43;100756.53;5039470;28;20037;-72
2022/06/03 11:37:59;;;;;;;2.00;0.80;;;;;;;26.37;48.80;100760.03;5045183;28;20040;-74
2022/06/03 11:40:30;;;;;;;2.55;0.70;;;;;;;26.43;48.65;100752.91;5041708;28;20341;-72
2022/06/03 11:43:10;;;;;;;2.65;0.90;;;;;;;26.43;48.58;100756.38;5045199;28;20120;-72
2022/06/03 11:45:51;;;;;;;3.67;1.05;;;;;;;26.42;48.83;100749.44;5045569;28;20040;-72
2022/06/03 11:48:27;;;;;;;2.63;1.05;;;;;;;26.42;48.59;100749.44;5045168;28;20459;-74
2022/06/03 11:50:53;;;;;;;1.83;0.90;;;;;;;26.41;48.70;100749.66;5062579;28;20476;-74
2022/06/03 11:53:37;;;;;;;3.65;1.05;;;;;;;26.42;48.54;100749.44;5059116;28;20021;-73
2022/06/03 11:56:04;;;;;;;2.20;1.02;;;;;;;26.42;48.85;100756.63;5063568;28;20054;-74
2022/06/03 11:58:54;;;;;;;1.65;1.00;;;;;;;26.42;48.74;100752.09;5060862;28;20380;-73
2022/06/03 12:01:25;;;;;;;3.55;1.00;;;;;;;26.49;48.89;100749.25;5059524;28;20748;-72
2022/06/03 12:04:14;;;;;;;2.80;1.20;;;;;;;26.62;48.71;100754.28;5057701;28;20186;-73
2022/06/03 12:06:51;;;;;;;3.55;1.30;;;;;;;26.82;50.63;100745.75;5008966;28;20367;-72
2022/06/03 12:09:38;;;;;;;2.83;1.08;;;;;;;27.15;52.41;100744.09;5060214;28;20028;-73
2022/06/03 12:15:24;;;;;;;2.50;1.23;;;;;;;27.22;49.40;100750.91;5064677;28;20043;-73
2022/06/03 12:17:50;;;;;;;3.10;1.25;;;;;;;27.10;49.42;100744.84;5064753;28;20059;-72
2022/06/03 12:20:35;;;;;;;2.20;0.93;;;;;;;27.06;49.27;100752.53;5067541;28;20072;-72
2022/06/03 12:23:13;;;;;;;1.95;0.90;;;;;;;27.04;49.29;100743.16;5064124;28;20024;-71
2022/06/03 12:25:51;;;;;;;3.20;0.88;;;;;;;27.01;49.39;100749.78;5066340;28;20119;-71
2022/06/03 12:28:37;;;;;;;3.63;0.75;;;;;;;26.95;49.17;100741.91;5065246;28;20052;-72
2022/06/03 12:31:08;;;;;;;4.97;1.52;;;;;;;26.94;50.92;100737.66;5060102;28;20036;-72
2022/06/03 12:33:46;;;;;;;5.03;1.23;;;;;;;26.95;51.21;100736.56;5065502;28;20044;-71
2022/06/03 12:36:29;;;;;;;5.93;1.10;;;;;;;26.93;52.07;100738.72;5068201;28;20051;-71
2022/06/03 12:38:55;;;;;;;2.85;1.02;;;;;;;26.88;50.98;100743.97;5064103;28;20036;-73
2022/06/03 12:41:46;;;;;;;4.43;1.15;;;;;;;26.87;49.82;100747.72;5064256;28;20511;-71
2022/06/03 12:44:44;;;;;;;3.67;1.10;;;;;;;26.94;48.69;100745.66;5065487;28;20036;-73
2022/06/03 12:47:47;;;;;;;5.10;1.00;;;;;;;26.92;48.47;100742.44;5065416;28;20040;-72
2022/06/03 12:50:28;;;;;;;3.88;1.50;;;;;;;26.87;48.69;100745.03;5067210;28;20056;-72